^^
Your Local Weather - Clay, NY Station Historical Data
Daily Summary for May 29, 2017 Units:  English    Metric   Both
« Previous Day
Next Day »
Daily Weekly Monthly Yearly Custom
  High: Low: Average:
Temperature: 71.9 °F 55.5 °F 61.6 °F
Dew Point: 61.2 °F 52.9 °F 56.6 °F
Humidity: 94% 66% 84%
Wind Speed: 6.0mph 0.0mph 1.8mph
Wind Gust: 10.0mph - -
Wind- - ESE
Pressure: 29.90 in 29.71 in -
Precipitation: 0.84 in    
Historical Graphs
 
 
Tabular Data for May 29, 2017
Time Temperature Dew Point Pressure Wind Wind Speed Wind Gust Humidity Rainfall Rate (Hourly) solar
00:00 66.0 °F 56.3 °F 29.73 in ESE 1.0 mph 2.0 mph 71% 0.00 in 0 W/m2
00:06 66.2 °F 56.5 °F 29.73 in ESE 1.0 mph 2.0 mph 71% 0.00 in 0 W/m2
00:12 66.3 °F 56.2 °F 29.73 in SSE 1.0 mph 4.0 mph 70% 0.00 in 0 W/m2
00:18 66.5 °F 56.4 °F 29.73 in SSE 1.0 mph 4.0 mph 70% 0.00 in 0 W/m2
00:24 66.3 °F 56.6 °F 29.73 in SE 1.0 mph 1.0 mph 71% 0.00 in 0 W/m2
00:30 65.8 °F 56.5 °F 29.73 in SSE 1.0 mph 3.0 mph 72% 0.00 in 0 W/m2
00:36 65.2 °F 56.3 °F 29.72 in East 1.0 mph 3.0 mph 73% 0.00 in 0 W/m2
00:42 64.9 °F 56.4 °F 29.72 in Calm   1.0 mph 74% 0.00 in 0 W/m2
00:48 64.6 °F 56.9 °F 29.72 in Calm   1.0 mph 76% 0.00 in 0 W/m2
00:54 64.3 °F 56.9 °F 29.72 in Calm     77% 0.00 in 0 W/m2
01:00 63.9 °F 56.9 °F 29.71 in Calm     78% 0.00 in 0 W/m2
01:06 64.1 °F 56.4 °F 29.71 in Calm     76% 0.00 in 0 W/m2
01:12 64.3 °F 56.6 °F 29.71 in Calm   2.0 mph 76% 0.00 in 0 W/m2
01:18 64.8 °F 56.7 °F 29.71 in ENE 1.0 mph 2.0 mph 75% 0.00 in 0 W/m2
01:24 65.1 °F 56.6 °F 29.71 in East 1.0 mph 1.0 mph 74% 0.00 in 0 W/m2
01:30 65.2 °F 56.7 °F 29.71 in East 1.0 mph 1.0 mph 74% 0.00 in 0 W/m2
01:36 65.4 °F 56.5 °F 29.71 in East 1.0 mph 3.0 mph 73% 0.00 in 0 W/m2
01:42 65.4 °F 56.5 °F 29.71 in ESE 1.0 mph 3.0 mph 73% 0.00 in 0 W/m2
01:48 65.5 °F 56.6 °F 29.71 in SE 2.0 mph 4.0 mph 73% 0.00 in 0 W/m2
01:54 65.5 °F 56.6 °F 29.71 in East 2.0 mph 3.0 mph 73% 0.00 in 0 W/m2
02:00 65.5 °F 56.6 °F 29.71 in SE 2.0 mph 2.0 mph 73% 0.00 in 0 W/m2
02:06 65.6 °F 56.7 °F 29.71 in SSE 3.0 mph 4.0 mph 73% 0.00 in 0 W/m2
02:12 65.5 °F 56.6 °F 29.71 in ENE 2.0 mph 3.0 mph 73% 0.00 in 0 W/m2
02:18 65.3 °F 56.8 °F 29.71 in SE 1.0 mph 3.0 mph 74% 0.00 in 0 W/m2
02:24 65.1 °F 56.6 °F 29.71 in SSE 1.0 mph 3.0 mph 74% 0.00 in 0 W/m2
02:30 64.7 °F 57.0 °F 29.71 in ENE 1.0 mph 1.0 mph 76% 0.53 in 0 W/m2
02:36 64.1 °F 57.8 °F 29.71 in ENE 1.0 mph 1.0 mph 80% 0.15 in 0 W/m2
02:42 62.9 °F 57.7 °F 29.71 in SE 1.0 mph 6.0 mph 83% 0.06 in 0 W/m2
02:48 62.3 °F 57.4 °F 29.71 in SSE 1.0 mph 6.0 mph 84% 0.04 in 0 W/m2
02:54 62.0 °F 57.4 °F 29.71 in Calm   1.0 mph 85% 0.19 in 0 W/m2
03:00 61.7 °F 57.5 °F 29.71 in Calm     86% 0.08 in 0 W/m2
03:06 61.4 °F 57.5 °F 29.71 in ESE 1.0 mph 1.0 mph 87% 0.05 in 0 W/m2
03:12 61.1 °F 57.5 °F 29.71 in ESE 1.0 mph 1.0 mph 88% 0.05 in 0 W/m2
03:18 60.9 °F 57.6 °F 29.72 in ENE 1.0 mph 3.0 mph 89% 0.04 in 0 W/m2
03:24 60.8 °F 57.5 °F 29.72 in ENE 1.0 mph 1.0 mph 89% 0.00 in 0 W/m2
03:30 60.7 °F 57.4 °F 29.72 in Calm   1.0 mph 89% 0.20 in 0 W/m2
03:36 60.6 °F 57.7 °F 29.71 in Calm   1.0 mph 90% 0.09 in 0 W/m2
03:42 60.5 °F 57.6 °F 29.72 in Calm   1.0 mph 90% 0.09 in 0 W/m2
03:48 60.4 °F 57.5 °F 29.72 in Calm   1.0 mph 90% 0.09 in 0 W/m2
03:54 60.3 °F 57.4 °F 29.72 in Calm     90% 0.05 in 0 W/m2
04:00 60.3 °F 57.7 °F 29.72 in Calm     91% 0.00 in 0 W/m2
04:06 60.2 °F 57.3 °F 29.72 in Calm   1.0 mph 90% 0.00 in 0 W/m2
04:12 60.1 °F 57.2 °F 29.72 in Calm   3.0 mph 90% 0.00 in 0 W/m2
04:18 60.0 °F 57.1 °F 29.73 in SE 1.0 mph 3.0 mph 90% 0.00 in 0 W/m2
04:24 60.0 °F 57.1 °F 29.73 in ESE 1.0 mph 1.0 mph 90% 0.00 in 0 W/m2
04:30 60.0 °F 57.1 °F 29.73 in SE 1.0 mph 2.0 mph 90% 0.00 in 0 W/m2
04:36 59.9 °F 57.0 °F 29.73 in SSE 1.0 mph 2.0 mph 90% 0.00 in 0 W/m2
04:42 60.0 °F 57.1 °F 29.73 in SSE 1.0 mph 2.0 mph 90% 0.00 in 0 W/m2
04:48 59.8 °F 56.9 °F 29.73 in SE 1.0 mph 2.0 mph 90% 0.00 in 0 W/m2
04:54 59.7 °F 56.8 °F 29.73 in SE 2.0 mph 5.0 mph 90% 0.00 in 0 W/m2
05:00 59.6 °F 56.7 °F 29.74 in SE 3.0 mph 3.0 mph 90% 0.00 in 0 W/m2
05:06 59.2 °F 56.0 °F 29.74 in SE 4.0 mph 9.0 mph 89% 0.00 in 0 W/m2
05:12 58.7 °F 54.8 °F 29.74 in SSE 5.0 mph 5.0 mph 87% 0.00 in 0 W/m2
05:18 58.2 °F 54.3 °F 29.74 in SSE 5.0 mph 5.0 mph 87% 0.00 in 0 W/m2
05:24 57.9 °F 54.1 °F 29.74 in SSE 5.0 mph 6.0 mph 87% 0.00 in 0 W/m2
05:30 57.6 °F 53.8 °F 29.74 in SE 4.0 mph 4.0 mph 87% 0.00 in 0 W/m2
05:36 57.3 °F 53.5 °F 29.74 in SE 4.0 mph 5.0 mph 87% 0.00 in 0 W/m2
05:42 57.1 °F 53.6 °F 29.74 in SE 3.0 mph 4.0 mph 88% 0.00 in 0 W/m2
05:48 57.0 °F 53.5 °F 29.74 in ENE 1.0 mph 4.0 mph 88% 0.00 in 0 W/m2
05:54 56.9 °F 53.7 °F 29.74 in ENE 1.0 mph 4.0 mph 89% 0.00 in 5 W/m2
06:00 56.7 °F 53.5 °F 29.74 in SSE 2.0 mph 3.0 mph 89% 0.00 in 7 W/m2
06:06 56.5 °F 53.3 °F 29.74 in SE 2.0 mph 3.0 mph 89% 0.00 in 7 W/m2
06:12 56.4 °F 53.2 °F 29.74 in ESE 2.0 mph 3.0 mph 89% 0.00 in 5 W/m2
06:18 56.3 °F 53.4 °F 29.74 in ENE 1.0 mph 3.0 mph 90% 0.00 in 5 W/m2
06:24 56.2 °F 53.3 °F 29.74 in SSE 1.0 mph 6.0 mph 90% 0.00 in 7 W/m2
06:30 56.2 °F 53.3 °F 29.74 in ENE 2.0 mph 2.0 mph 90% 0.00 in 7 W/m2
06:36 56.2 °F 53.3 °F 29.74 in East 2.0 mph 5.0 mph 90% 0.00 in 9 W/m2
06:42 56.1 °F 53.2 °F 29.74 in ENE 2.0 mph 5.0 mph 90% 0.00 in 11 W/m2
06:48 56.1 °F 53.2 °F 29.74 in ESE 2.0 mph 5.0 mph 90% 0.00 in 12 W/m2
06:54 56.0 °F 53.1 °F 29.75 in East 2.0 mph 3.0 mph 90% 0.00 in 9 W/m2
07:00 56.0 °F 53.4 °F 29.75 in East 2.0 mph 2.0 mph 91% 0.00 in 9 W/m2
07:06 55.9 °F 53.3 °F 29.75 in SE 1.0 mph 2.0 mph 91% 0.04 in 9 W/m2
07:18 55.9 °F 53.3 °F 29.76 in East 2.0 mph 4.0 mph 91% 0.08 in 30 W/m2
07:24 55.9 °F 53.3 °F 29.76 in SSE 2.0 mph 3.0 mph 91% 0.05 in 32 W/m2
07:30 55.8 °F 53.2 °F 29.77 in SE 2.0 mph 5.0 mph 91% 0.00 in 16 W/m2
07:36 55.8 °F 53.2 °F 29.77 in SE 2.0 mph 5.0 mph 91% 0.00 in 19 W/m2
07:42 55.7 °F 53.1 °F 29.77 in SE 2.0 mph 2.0 mph 91% 0.00 in 19 W/m2
07:48 55.6 °F 53.0 °F 29.77 in SSE 2.0 mph 4.0 mph 91% 0.00 in 16 W/m2
07:54 55.5 °F 52.9 °F 29.76 in SE 2.0 mph 4.0 mph 91% 0.00 in 16 W/m2
08:00 55.5 °F 53.2 °F 29.76 in ENE 2.0 mph 2.0 mph 92% 0.00 in 26 W/m2
08:06 55.5 °F 53.2 °F 29.76 in SE 1.0 mph 2.0 mph 92% 0.00 in 40 W/m2
08:12 55.6 °F 53.3 °F 29.77 in East 1.0 mph 1.0 mph 92% 0.00 in 40 W/m2
08:18 55.6 °F 53.3 °F 29.76 in SE 1.0 mph 1.0 mph 92% 0.00 in 42 W/m2
08:24 55.6 °F 53.3 °F 29.76 in SE 1.0 mph 2.0 mph 92% 0.00 in 35 W/m2
08:30 55.6 °F 53.3 °F 29.77 in ESE 1.0 mph 1.0 mph 92% 0.00 in 33 W/m2
08:36 55.6 °F 53.3 °F 29.76 in SE 1.0 mph 1.0 mph 92% 0.00 in 47 W/m2
08:42 55.6 °F 53.3 °F 29.76 in SE 1.0 mph 2.0 mph 92% 0.00 in 42 W/m2
08:48 55.6 °F 53.3 °F 29.76 in ENE 2.0 mph 3.0 mph 92% 0.00 in 42 W/m2
08:54 55.6 °F 53.3 °F 29.76 in SSE 2.0 mph 2.0 mph 92% 0.00 in 54 W/m2
09:00 55.7 °F 53.1 °F 29.76 in SE 2.0 mph 2.0 mph 91% 0.00 in 46 W/m2
09:06 55.7 °F 53.1 °F 29.77 in SSE 3.0 mph 6.0 mph 91% 0.00 in 53 W/m2
09:12 55.9 °F 53.3 °F 29.77 in East 2.0 mph 3.0 mph 91% 0.00 in 49 W/m2
09:18 56.0 °F 53.4 °F 29.77 in SSE 2.0 mph 4.0 mph 91% 0.00 in 32 W/m2
09:24 56.0 °F 53.4 °F 29.77 in SE 2.0 mph 4.0 mph 91% 0.00 in 44 W/m2
09:30 56.0 °F 53.1 °F 29.77 in SE 2.0 mph 2.0 mph 90% 0.00 in 60 W/m2
09:32 56.1 °F 53.2 °F 29.77 in SE 2.0 mph 3.0 mph 90% 0.00 in 54 W/m2
09:38 56.1 °F 53.2 °F 29.77 in ESE 2.0 mph 4.0 mph 90% 0.00 in 40 W/m2
09:44 56.2 °F 53.3 °F 29.77 in East 2.0 mph 2.0 mph 90% 0.00 in 42 W/m2
09:50 56.2 °F 53.3 °F 29.77 in ENE 2.0 mph 3.0 mph 90% 0.00 in 46 W/m2
09:56 56.2 °F 53.3 °F 29.77 in East 2.0 mph 3.0 mph 90% 0.00 in 60 W/m2
10:02 56.2 °F 53.3 °F 29.77 in ENE 1.0 mph 2.0 mph 90% 0.00 in 44 W/m2
10:08 56.3 °F 53.4 °F 29.77 in ENE 1.0 mph 2.0 mph 90% 0.00 in 39 W/m2
10:14 56.3 °F 53.4 °F 29.78 in Calm   1.0 mph 90% 0.09 in 35 W/m2
10:20 56.3 °F 53.7 °F 29.78 in Calm     91% 0.09 in 60 W/m2
10:26 56.4 °F 53.8 °F 29.78 in ENE 1.0 mph 1.0 mph 91% 0.05 in 58 W/m2
10:32 56.5 °F 53.9 °F 29.77 in Calm   1.0 mph 91% 0.11 in 70 W/m2
10:38 56.5 °F 53.9 °F 29.77 in NE 1.0 mph 2.0 mph 91% 0.14 in 84 W/m2
10:44 56.6 °F 54.0 °F 29.77 in SSE 2.0 mph 4.0 mph 91% 0.11 in 74 W/m2
10:50 56.5 °F 53.9 °F 29.78 in SSE 3.0 mph 3.0 mph 91% 0.06 in 72 W/m2
10:56 56.6 °F 54.0 °F 29.78 in SSE 2.0 mph 3.0 mph 91% 0.13 in 84 W/m2
11:02 56.7 °F 54.4 °F 29.78 in SSE 2.0 mph 2.0 mph 92% 0.22 in 77 W/m2
11:08 56.7 °F 54.4 °F 29.78 in SSE 1.0 mph 2.0 mph 92% 0.12 in 83 W/m2
11:14 56.8 °F 54.5 °F 29.78 in SSE 1.0 mph 2.0 mph 92% 0.06 in 93 W/m2
11:20 56.8 °F 54.5 °F 29.78 in SSE 1.0 mph 1.0 mph 92% 0.06 in 76 W/m2
11:26 57.0 °F 54.7 °F 29.79 in Calm   1.0 mph 92% 0.05 in 91 W/m2
11:32 57.1 °F 54.8 °F 29.79 in Calm     92% 0.00 in 139 W/m2
11:38 57.4 °F 55.1 °F 29.79 in Calm   1.0 mph 92% 0.00 in 72 W/m2
11:44 57.4 °F 55.1 °F 29.79 in Calm   1.0 mph 92% 0.00 in 162 W/m2
11:50 57.7 °F 55.4 °F 29.79 in Calm   1.0 mph 92% 0.00 in 118 W/m2
11:56 57.8 °F 55.5 °F 29.79 in Calm   1.0 mph 92% 0.00 in 192 W/m2
12:02 58.2 °F 55.9 °F 29.79 in East 1.0 mph 2.0 mph 92% 0.00 in 181 W/m2
12:08 58.6 °F 56.3 °F 29.79 in ESE 1.0 mph 2.0 mph 92% 0.00 in 283 W/m2
12:14 58.8 °F 56.2 °F 29.79 in SE 1.0 mph 2.0 mph 91% 0.00 in 134 W/m2
12:20 58.9 °F 56.0 °F 29.79 in SE 1.0 mph 1.0 mph 90% 0.00 in 113 W/m2
12:26 59.0 °F 56.1 °F 29.80 in SE 1.0 mph 1.0 mph 90% 0.00 in 130 W/m2
12:32 59.4 °F 56.5 °F 29.80 in Calm   3.0 mph 90% 0.00 in 227 W/m2
12:38 59.7 °F 56.8 °F 29.80 in ESE 2.0 mph 3.0 mph 90% 0.00 in 274 W/m2
12:44 60.0 °F 57.1 °F 29.81 in SE 2.0 mph 3.0 mph 90% 0.00 in 338 W/m2
12:50 60.5 °F 56.9 °F 29.81 in ESE 1.0 mph 1.0 mph 88% 0.00 in 362 W/m2
12:56 61.2 °F 57.3 °F 29.81 in SE 1.0 mph 2.0 mph 87% 0.00 in 418 W/m2
13:02 62.0 °F 57.8 °F 29.81 in South 2.0 mph 3.0 mph 86% 0.00 in 378 W/m2
13:08 62.7 °F 58.1 °F 29.81 in ENE 2.0 mph 4.0 mph 85% 0.00 in 522 W/m2
13:14 63.5 °F 58.2 °F 29.81 in South 3.0 mph 9.0 mph 83% 0.00 in 571 W/m2
13:20 64.5 °F 59.6 °F 29.81 in SSE 4.0 mph 6.0 mph 84% 0.00 in 1041 W/m2
13:26 65.0 °F 59.0 °F 29.80 in South 4.0 mph 7.0 mph 81% 0.00 in 1055 W/m2
13:32 65.1 °F 58.4 °F 29.81 in SSE 5.0 mph 8.0 mph 79% 0.00 in 1060 W/m2
13:38 65.4 °F 59.1 °F 29.81 in SSE 6.0 mph 8.0 mph 80% 0.00 in 960 W/m2
13:44 66.0 °F 59.7 °F 29.81 in SSE 5.0 mph 6.0 mph 80% 0.00 in 974 W/m2
13:50 66.3 °F 58.5 °F 29.80 in SE 5.0 mph 6.0 mph 76% 0.00 in 977 W/m2
13:56 66.5 °F 58.3 °F 29.81 in SSE 5.0 mph 10.0 mph 75% 0.00 in 988 W/m2
14:02 66.5 °F 58.0 °F 29.81 in SSE 6.0 mph 6.0 mph 74% 0.00 in 366 W/m2
14:08 66.1 °F 57.6 °F 29.81 in SSW 5.0 mph 7.0 mph 74% 0.00 in 304 W/m2
14:14 66.0 °F 57.8 °F 29.80 in South 6.0 mph 6.0 mph 75% 0.00 in 322 W/m2
14:20 66.3 °F 58.5 °F 29.80 in SE 5.0 mph 5.0 mph 76% 0.00 in 464 W/m2
14:26 67.3 °F 58.7 °F 29.80 in SSW 4.0 mph 5.0 mph 74% 0.00 in 949 W/m2
14:32 68.5 °F 59.1 °F 29.81 in South 3.0 mph 5.0 mph 72% 0.00 in 1030 W/m2
14:38 68.3 °F 58.5 °F 29.80 in SSE 4.0 mph 6.0 mph 71% 0.00 in 1030 W/m2
14:44 68.8 °F 59.0 °F 29.80 in SE 4.0 mph 8.0 mph 71% 0.00 in 970 W/m2
14:50 69.2 °F 59.4 °F 29.80 in SSE 4.0 mph 8.0 mph 71% 0.00 in 1188 W/m2
14:56 69.3 °F 59.1 °F 29.80 in SE 4.0 mph 8.0 mph 70% 0.00 in 900 W/m2
15:02 69.1 °F 58.5 °F 29.79 in ENE 4.0 mph 7.0 mph 69% 0.00 in 993 W/m2
15:08 69.3 °F 59.5 °F 29.80 in SW 4.0 mph 7.0 mph 71% 0.00 in 359 W/m2
15:14 69.2 °F 59.0 °F 29.80 in SSE 3.0 mph 4.0 mph 70% 0.00 in 366 W/m2
15:20 70.6 °F 59.9 °F 29.79 in SE 3.0 mph 4.0 mph 69% 0.00 in 1056 W/m2
15:26 71.1 °F 60.0 °F 29.80 in South 3.0 mph 4.0 mph 68% 0.00 in 1051 W/m2
15:32 71.4 °F 59.4 °F 29.80 in South 3.0 mph 3.0 mph 66% 0.00 in 1007 W/m2
15:38 70.0 °F 58.5 °F 29.80 in SSE 4.0 mph 4.0 mph 67% 0.00 in 345 W/m2
15:44 70.1 °F 59.5 °F 29.80 in ESE 4.0 mph 5.0 mph 69% 0.00 in 332 W/m2
15:50 69.7 °F 58.7 °F 29.80 in SSW 4.0 mph 4.0 mph 68% 0.00 in 288 W/m2
15:56 69.5 °F 59.3 °F 29.80 in ENE 2.0 mph 7.0 mph 70% 0.00 in 225 W/m2
16:02 69.0 °F 59.6 °F 29.81 in South 2.0 mph 2.0 mph 72% 0.00 in 216 W/m2
16:08 68.9 °F 59.1 °F 29.81 in SSE 3.0 mph 9.0 mph 71% 0.00 in 385 W/m2
16:14 69.7 °F 59.1 °F 29.81 in SSE 3.0 mph 7.0 mph 69% 0.00 in 346 W/m2
16:20 70.2 °F 60.7 °F 29.81 in SSE 4.0 mph 7.0 mph 72% 0.00 in 207 W/m2
16:26 70.3 °F 59.6 °F 29.81 in SSE 4.0 mph 7.0 mph 69% 0.00 in 779 W/m2
16:32 70.7 °F 60.4 °F 29.81 in ESE 3.0 mph 4.0 mph 70% 0.00 in 211 W/m2
16:38 69.7 °F 59.5 °F 29.81 in SSE 3.0 mph 5.0 mph 70% 0.00 in 283 W/m2
16:44 69.7 °F 59.5 °F 29.81 in East 4.0 mph 4.0 mph 70% 0.00 in 132 W/m2
16:50 69.2 °F 60.2 °F 29.81 in East 2.0 mph 2.0 mph 73% 0.00 in 260 W/m2
16:56 69.7 °F 59.9 °F 29.81 in SE 2.0 mph 4.0 mph 71% 0.00 in 582 W/m2
17:02 70.3 °F 60.1 °F 29.82 in SSE 3.0 mph 3.0 mph 70% 0.00 in 450 W/m2
17:08 70.0 °F 59.8 °F 29.82 in SSE 3.0 mph 4.0 mph 70% 0.00 in 197 W/m2
17:14 69.9 °F 59.7 °F 29.81 in SSE 3.0 mph 5.0 mph 70% 0.00 in 188 W/m2
17:20 70.3 °F 60.4 °F 29.81 in SE 1.0 mph 4.0 mph 71% 0.00 in 125 W/m2
17:26 70.3 °F 60.1 °F 29.82 in SSE 2.0 mph 4.0 mph 70% 0.00 in 167 W/m2
17:32 70.6 °F 60.7 °F 29.82 in SE 1.0 mph 5.0 mph 71% 0.00 in 98 W/m2
17:50 71.0 °F 60.3 °F 29.82 in SSE 2.0 mph 5.0 mph 69% 0.00 in 128 W/m2
17:56 71.1 °F 60.0 °F 29.82 in South 4.0 mph 5.0 mph 68% 0.00 in 127 W/m2
18:02 71.5 °F 61.2 °F 29.82 in ENE 2.0 mph 4.0 mph 70% 0.00 in 120 W/m2
18:08 71.7 °F 60.6 °F 29.82 in ENE 2.0 mph 4.0 mph 68% 0.00 in 104 W/m2
18:14 71.9 °F 61.2 °F 29.82 in ENE 3.0 mph 6.0 mph 69% 0.00 in 100 W/m2
18:20 70.3 °F 60.1 °F 29.82 in ENE 3.0 mph 3.0 mph 70% 0.00 in 81 W/m2
18:26 69.0 °F 60.0 °F 29.82 in NE 2.0 mph 3.0 mph 73% 0.00 in 58 W/m2
18:32 68.6 °F 60.4 °F 29.82 in ENE 2.0 mph 3.0 mph 75% 0.00 in 47 W/m2
18:38 68.1 °F 59.9 °F 29.82 in NE 2.0 mph 4.0 mph 75% 0.00 in 37 W/m2
18:44 67.6 °F 60.1 °F 29.82 in NE 2.0 mph 3.0 mph 77% 0.00 in 35 W/m2
18:50 66.9 °F 59.8 °F 29.82 in ENE 2.0 mph 2.0 mph 78% 0.00 in 49 W/m2
18:56 66.4 °F 60.0 °F 29.82 in ENE 2.0 mph 4.0 mph 80% 0.00 in 44 W/m2
19:30 63.5 °F 59.6 °F 29.86 in NW 2.0 mph 6.0 mph 87% 0.23 in 0 W/m2
19:38 61.9 °F 58.3 °F 29.86 in NNW 5.0 mph 6.0 mph 88% 1.29 in 19 W/m2
19:44 61.4 °F 58.1 °F 29.87 in NNE 5.0 mph 7.0 mph 89% 0.26 in 14 W/m2
19:50 61.3 °F 58.3 °F 29.87 in NE 5.0 mph 5.0 mph 90% 0.39 in 53 W/m2
19:56 61.4 °F 58.7 °F 29.86 in North 3.0 mph 5.0 mph 91% 0.08 in 77 W/m2
20:02 61.7 °F 59.0 °F 29.86 in East 3.0 mph 3.0 mph 91% 0.04 in 42 W/m2
20:08 61.6 °F 58.9 °F 29.87 in East 2.0 mph 3.0 mph 91% 0.00 in 26 W/m2
20:14 61.5 °F 58.8 °F 29.87 in East 1.0 mph 3.0 mph 91% 0.00 in 12 W/m2
20:20 61.2 °F 58.6 °F 29.87 in East 1.0 mph 2.0 mph 91% 0.00 in 9 W/m2
20:26 60.9 °F 58.3 °F 29.87 in East 1.0 mph 2.0 mph 91% 0.00 in 7 W/m2
20:32 60.7 °F 58.1 °F 29.87 in ENE 1.0 mph 3.0 mph 91% 0.00 in 0 W/m2
20:38 60.6 °F 58.3 °F 29.87 in ENE 2.0 mph 3.0 mph 92% 0.00 in 0 W/m2
20:44 60.4 °F 58.1 °F 29.87 in East 1.0 mph 2.0 mph 92% 0.00 in 0 W/m2
20:50 60.2 °F 57.9 °F 29.87 in East 1.0 mph 2.0 mph 92% 0.00 in 0 W/m2
20:56 60.0 °F 57.7 °F 29.87 in East 1.0 mph 2.0 mph 92% 0.00 in 0 W/m2
21:02 59.9 °F 57.6 °F 29.88 in NNE 1.0 mph 2.0 mph 92% 0.00 in 0 W/m2
21:08 59.8 °F 57.5 °F 29.88 in East 1.0 mph 5.0 mph 92% 0.00 in 0 W/m2
21:16 59.6 °F 57.3 °F 29.88 in East 1.0 mph 1.0 mph 92% 0.00 in 0 W/m2
21:22 59.4 °F 57.1 °F 29.88 in NE 1.0 mph 1.0 mph 92% 0.00 in 0 W/m2
21:28 59.3 °F 57.0 °F 29.89 in ENE 1.0 mph 1.0 mph 92% 0.00 in 0 W/m2
21:34 59.1 °F 56.8 °F 29.89 in ENE 1.0 mph 1.0 mph 92% 0.00 in 0 W/m2
21:40 58.9 °F 56.9 °F 29.89 in ENE 1.0 mph 2.0 mph 93% 0.00 in 0 W/m2
21:46 58.8 °F 56.8 °F 29.89 in ENE 1.0 mph 1.0 mph 93% 0.00 in 0 W/m2
21:52 58.7 °F 56.7 °F 29.89 in ENE 1.0 mph 1.0 mph 93% 0.00 in 0 W/m2
21:58 58.6 °F 56.6 °F 29.89 in East 1.0 mph 3.0 mph 93% 0.00 in 0 W/m2
22:04 58.6 °F 56.6 °F 29.89 in ENE 1.0 mph 2.0 mph 93% 0.00 in 0 W/m2
22:10 58.5 °F 56.5 °F 29.89 in ENE 1.0 mph 1.0 mph 93% 0.00 in 0 W/m2
22:12 58.4 °F 56.4 °F 29.89 in Calm   1.0 mph 93% 0.00 in 0 W/m2
22:18 58.3 °F 56.3 °F 29.89 in ENE 1.0 mph 2.0 mph 93% 0.00 in 0 W/m2
22:24 58.3 °F 56.3 °F 29.89 in ENE 2.0 mph 3.0 mph 93% 0.00 in 0 W/m2
22:30 58.1 °F 56.1 °F 29.89 in ENE 1.0 mph 1.0 mph 93% 0.00 in 0 W/m2
22:36 57.9 °F 55.9 °F 29.89 in ENE 1.0 mph 2.0 mph 93% 0.00 in 0 W/m2
22:42 57.9 °F 55.9 °F 29.89 in ENE 1.0 mph 2.0 mph 93% 0.00 in 0 W/m2
22:48 57.8 °F 55.8 °F 29.89 in ENE 1.0 mph 3.0 mph 93% 0.00 in 0 W/m2
22:54 57.8 °F 55.8 °F 29.89 in ENE 1.0 mph 3.0 mph 93% 0.00 in 0 W/m2
23:00 57.8 °F 55.8 °F 29.89 in ESE 2.0 mph 3.0 mph 93% 0.00 in 0 W/m2
23:06 57.8 °F 55.8 °F 29.89 in East 1.0 mph 3.0 mph 93% 0.00 in 0 W/m2
23:12 57.6 °F 55.6 °F 29.89 in East 1.0 mph 3.0 mph 93% 0.00 in 0 W/m2
23:18 57.6 °F 55.6 °F 29.89 in East 1.0 mph 3.0 mph 93% 0.00 in 0 W/m2
23:24 57.5 °F 55.5 °F 29.90 in ENE 1.0 mph 3.0 mph 93% 0.00 in 0 W/m2
23:30 57.4 °F 55.4 °F 29.89 in East 1.0 mph 1.0 mph 93% 0.00 in 0 W/m2
23:36 57.3 °F 55.6 °F 29.89 in East 1.0 mph 3.0 mph 94% 0.00 in 0 W/m2
23:42 57.1 °F 55.4 °F 29.90 in ENE 1.0 mph 3.0 mph 94% 0.00 in 0 W/m2
23:48 57.1 °F 55.4 °F 29.90 in ENE 1.0 mph 5.0 mph 94% 0.00 in 0 W/m2
23:54 57.0 °F 55.3 °F 29.90 in ENE 1.0 mph 3.0 mph 94% 0.00 in 0 W/m2
Country Meadow, Clay, NY, USA
Compliments of Weather Underground - 2 mb